createdAt,value
2023-01-11T00:00:44.843Z,8.86
2023-01-11T00:03:11.956Z,8.86
2023-01-11T00:05:42.891Z,8.87
2023-01-11T00:08:10.117Z,8.89
2023-01-11T00:10:36.866Z,8.91
2023-01-11T00:13:03.978Z,8.93
2023-01-11T00:15:30.932Z,8.95
2023-01-11T00:17:57.750Z,9.00
2023-01-11T00:20:24.945Z,9.03
2023-01-11T00:22:51.439Z,9.07
2023-01-11T00:25:18.003Z,9.10
2023-01-11T00:27:44.519Z,9.11
2023-01-11T00:30:11.696Z,9.13
2023-01-11T00:32:38.159Z,9.14
2023-01-11T00:35:04.969Z,9.15
2023-01-11T00:37:31.380Z,9.17
2023-01-11T00:39:57.981Z,9.19
2023-01-11T00:42:42.779Z,9.20
2023-01-11T00:45:28.159Z,9.23
2023-01-11T00:47:57.160Z,9.23
2023-01-11T00:50:32.490Z,9.26
2023-01-11T00:52:59.317Z,9.26
2023-01-11T00:55:26.641Z,9.29
2023-01-11T00:57:53.763Z,9.31
2023-01-11T01:00:21.882Z,9.35
2023-01-11T01:02:49.501Z,9.37
2023-01-11T01:05:17.473Z,9.38
2023-01-11T01:07:44.744Z,9.38
2023-01-11T01:10:13.569Z,9.38
2023-01-11T01:12:58.969Z,9.40
2023-01-11T01:15:25.653Z,9.42
2023-01-11T01:17:56.191Z,9.43
2023-01-11T01:20:24.443Z,9.45
2023-01-11T01:22:51.559Z,9.45
2023-01-11T01:25:18.389Z,9.47
2023-01-11T01:27:45.032Z,9.48
2023-01-11T01:30:11.911Z,9.49
2023-01-11T01:32:38.354Z,9.51
2023-01-11T01:35:05.271Z,9.53
2023-01-11T01:37:31.768Z,9.53
2023-01-11T01:39:58.196Z,9.54
2023-01-11T01:42:32.647Z,9.56
2023-01-11T01:45:04.145Z,9.57
2023-01-11T01:47:48.893Z,9.60
2023-01-11T01:50:20.362Z,9.60
2023-01-11T01:52:49.538Z,9.61
2023-01-11T01:55:32.259Z,9.62
2023-01-11T01:58:00.692Z,9.64
2023-01-11T02:00:27.352Z,9.66
2023-01-11T02:02:57.416Z,9.67
2023-01-11T02:05:24.059Z,9.67
2023-01-11T02:07:51.454Z,9.68
2023-01-11T02:10:21.265Z,9.69
2023-01-11T02:13:00.770Z,9.72
2023-01-11T02:15:28.394Z,9.73
2023-01-11T02:17:54.914Z,9.75
2023-01-11T02:20:42.912Z,9.79
2023-01-11T02:23:59.213Z,9.80
2023-01-11T02:26:58.532Z,9.81
2023-01-11T02:29:54.696Z,9.82
2023-01-11T02:32:31.420Z,9.84
2023-01-11T02:35:21.170Z,9.85
2023-01-11T02:37:55.294Z,9.87
2023-01-11T02:40:40.277Z,9.87
2023-01-11T02:43:39.526Z,9.90
2023-01-11T02:46:06.108Z,9.90
2023-01-11T02:48:52.500Z,9.89
2023-01-11T02:51:32.379Z,9.93
2023-01-11T02:54:07.082Z,9.96
2023-01-11T02:56:38.658Z,9.95
2023-01-11T02:59:07.975Z,9.96
2023-01-11T03:01:44.526Z,9.96
2023-01-11T03:04:22.302Z,9.99
2023-01-11T03:06:48.865Z,9.98
2023-01-11T03:09:51.318Z,10.01
2023-01-11T03:12:57.177Z,10.04
2023-01-11T03:15:56.067Z,10.04
2023-01-11T03:18:34.792Z,10.06
2023-01-11T03:21:19.199Z,10.08
2023-01-11T03:24:03.618Z,10.10
2023-01-11T03:26:36.163Z,10.10
2023-01-11T03:29:10.632Z,10.11
2023-01-11T03:31:50.711Z,10.11
2023-01-11T03:34:26.900Z,10.11
2023-01-11T03:37:01.657Z,10.10
2023-01-11T03:39:46.459Z,10.10
2023-01-11T03:42:17.259Z,10.12
2023-01-11T03:44:46.528Z,10.12
2023-01-11T03:47:16.277Z,10.13
2023-01-11T03:49:47.607Z,10.14
2023-01-11T03:52:17.955Z,10.15
2023-01-11T03:54:44.809Z,10.15
2023-01-11T03:57:24.176Z,10.15
2023-01-11T03:59:50.726Z,10.15
2023-01-11T04:02:22.470Z,10.14
2023-01-11T04:04:48.858Z,10.16
2023-01-11T04:07:15.295Z,10.16
2023-01-11T04:09:42.400Z,10.17
2023-01-11T04:12:08.859Z,10.15
2023-01-11T04:14:35.567Z,10.15
2023-01-11T04:17:02.037Z,10.17
2023-01-11T04:19:28.880Z,10.19
2023-01-11T04:21:55.418Z,10.18
2023-01-11T04:24:22.055Z,10.18
2023-01-11T04:26:48.664Z,10.17
2023-01-11T04:29:15.148Z,10.18
2023-01-11T04:31:42.173Z,10.18
2023-01-11T04:34:08.686Z,10.17
2023-01-11T04:36:35.149Z,10.18
2023-01-11T04:39:01.662Z,10.18
2023-01-11T04:41:46.539Z,10.17
2023-01-11T04:44:13.023Z,10.17
2023-01-11T04:46:39.478Z,10.17
2023-01-11T04:49:05.921Z,10.17
2023-01-11T04:51:32.366Z,10.18
2023-01-11T04:53:58.808Z,10.17
2023-01-11T04:56:25.247Z,10.17
2023-01-11T04:58:51.675Z,10.17
2023-01-11T05:01:19.403Z,10.16
2023-01-11T05:03:46.557Z,10.15
2023-01-11T05:06:14.513Z,10.17
2023-01-11T05:08:45.576Z,10.16
2023-01-11T05:11:12.281Z,10.15
2023-01-11T05:13:41.637Z,10.14
2023-01-11T05:16:13.459Z,10.14
2023-01-11T05:18:51.327Z,10.13
2023-01-11T05:21:20.817Z,10.13
2023-01-11T05:23:47.731Z,10.12
2023-01-11T05:26:20.430Z,10.10
2023-01-11T05:28:47.398Z,10.10
2023-01-11T05:31:14.130Z,10.08
2023-01-11T05:33:40.648Z,10.06
2023-01-11T05:36:12.020Z,10.03
2023-01-11T05:38:38.822Z,10.04
2023-01-11T05:41:11.912Z,10.03
2023-01-11T05:43:58.664Z,9.99
2023-01-11T05:46:26.579Z,9.98
2023-01-11T05:48:55.260Z,9.97
2023-01-11T05:51:22.962Z,9.96
2023-01-11T05:53:49.591Z,9.93
2023-01-11T05:56:16.065Z,9.91
2023-01-11T05:58:42.493Z,9.90
2023-01-11T06:01:12.396Z,9.87
2023-01-11T06:03:38.892Z,9.85
2023-01-11T06:06:05.529Z,9.83
2023-01-11T06:08:31.971Z,9.80
2023-01-11T06:10:58.793Z,9.81
2023-01-11T06:13:28.738Z,9.77
2023-01-11T06:16:05.188Z,9.74
2023-01-11T06:18:39.961Z,9.72
2023-01-11T06:21:07.030Z,9.68
2023-01-11T06:23:36.629Z,9.66
2023-01-11T06:26:05.994Z,9.62
2023-01-11T06:28:32.473Z,9.61
2023-01-11T06:31:00.086Z,9.57
2023-01-11T06:33:28.262Z,9.54
2023-01-11T06:35:55.412Z,9.51
2023-01-11T06:38:23.319Z,9.50
2023-01-11T06:40:58.692Z,9.47
2023-01-11T06:43:26.164Z,9.44
2023-01-11T06:45:53.191Z,9.43
2023-01-11T06:48:21.642Z,9.40
2023-01-11T06:50:49.761Z,9.38
2023-01-11T06:53:16.406Z,9.35
2023-01-11T06:55:43.044Z,9.34
2023-01-11T06:58:09.722Z,9.32
2023-01-11T07:00:36.564Z,9.29
2023-01-11T07:03:04.857Z,9.27
2023-01-11T07:05:35.694Z,9.24
2023-01-11T07:08:02.909Z,9.22
2023-01-11T07:10:29.392Z,9.22
2023-01-11T07:12:55.956Z,9.20
2023-01-11T07:15:22.846Z,9.17
2023-01-11T07:17:54.748Z,9.14
2023-01-11T07:20:21.712Z,9.13
2023-01-11T07:22:48.376Z,9.11
2023-01-11T07:25:14.987Z,9.07
2023-01-11T07:27:41.484Z,9.00
2023-01-11T07:30:09.992Z,8.96
2023-01-11T07:32:36.518Z,8.92
2023-01-11T07:35:03.126Z,8.89
2023-01-11T07:37:32.536Z,8.86
2023-01-11T07:39:59.075Z,8.82
2023-01-11T07:42:44.272Z,8.79
2023-01-11T07:45:11.061Z,8.75
2023-01-11T07:47:37.665Z,8.74
2023-01-11T07:50:04.499Z,8.73
2023-01-11T07:52:30.962Z,8.68
2023-01-11T07:55:02.363Z,8.66
2023-01-11T07:57:30.209Z,8.65
2023-01-11T07:59:56.793Z,8.61
2023-01-11T08:02:23.392Z,8.60
2023-01-11T08:04:50.296Z,8.60
2023-01-11T08:07:16.846Z,8.60
2023-01-11T08:09:43.339Z,8.60
2023-01-11T08:12:28.275Z,8.59
2023-01-11T08:14:55.004Z,8.55
2023-01-11T08:17:21.681Z,8.51
2023-01-11T08:19:48.200Z,8.48
2023-01-11T08:22:14.783Z,8.47
2023-01-11T08:24:41.264Z,8.43
2023-01-11T08:27:07.848Z,8.40
2023-01-11T08:29:34.652Z,8.37
2023-01-11T08:32:01.238Z,8.34
2023-01-11T08:34:29.012Z,8.31
2023-01-11T08:36:57.535Z,8.27
2023-01-11T08:39:24.970Z,8.26
2023-01-11T08:41:51.479Z,8.22
2023-01-11T08:44:29.013Z,8.20
2023-01-11T08:47:01.833Z,8.17
2023-01-11T08:49:30.353Z,8.15
2023-01-11T08:51:57.664Z,8.13
2023-01-11T08:54:25.050Z,8.08
2023-01-11T08:56:51.571Z,8.07
2023-01-11T08:59:19.813Z,8.06
2023-01-11T09:01:46.515Z,8.03
2023-01-11T09:04:24.334Z,8.02
2023-01-11T09:06:52.957Z,8.01
2023-01-11T09:09:19.538Z,7.98
2023-01-11T09:11:55.008Z,7.97
2023-01-11T09:14:22.827Z,7.93
2023-01-11T09:16:49.536Z,7.91
2023-01-11T09:19:17.058Z,7.90
2023-01-11T09:21:46.055Z,7.86
2023-01-11T09:24:13.253Z,7.86
2023-01-11T09:26:41.410Z,7.89
2023-01-11T09:29:08.408Z,7.93
2023-01-11T09:31:35.110Z,7.95
2023-01-11T09:34:01.761Z,7.98
2023-01-11T09:36:28.968Z,8.03
2023-01-11T09:38:57.294Z,8.07
2023-01-11T09:42:08.761Z,8.10
2023-01-11T09:44:36.671Z,8.10
2023-01-11T09:47:25.335Z,8.10
2023-01-11T09:49:58.161Z,8.09
2023-01-11T09:52:28.971Z,8.11
2023-01-11T09:54:58.896Z,8.12
2023-01-11T09:57:29.126Z,8.14
2023-01-11T10:00:09.632Z,8.17
2023-01-11T10:02:45.032Z,8.20
2023-01-11T10:05:34.669Z,8.22
2023-01-11T10:18:26.162Z,8.41
2023-01-11T10:18:30.859Z,8.46
2023-01-11T10:20:52.908Z,8.59
2023-01-11T10:23:31.950Z,8.72
2023-01-11T10:26:04.775Z,8.81
2023-01-11T10:28:39.606Z,8.87
2023-01-11T10:31:49.558Z,8.88
2023-01-11T10:34:42.028Z,8.90
2023-01-11T10:37:24.172Z,8.94
2023-01-11T10:40:28.482Z,8.94
2023-01-11T10:43:03.410Z,8.90
2023-01-11T10:45:50.269Z,8.89
2023-01-11T10:48:24.570Z,8.89
2023-01-11T10:51:03.547Z,8.92
2023-01-11T10:57:03.166Z,8.95
2023-01-11T10:59:51.723Z,9.01
2023-01-11T11:02:36.808Z,9.01
2023-01-11T11:05:24.918Z,9.00
2023-01-11T11:08:17.275Z,8.97
2023-01-11T11:11:01.257Z,9.02
2023-01-11T11:13:45.062Z,9.01
2023-01-11T11:16:17.458Z,9.05
2023-01-11T11:18:44.075Z,9.06
2023-01-11T11:21:23.739Z,9.09
2023-01-11T11:23:55.687Z,9.10
2023-01-11T11:26:28.436Z,9.12
2023-01-11T11:29:03.573Z,9.14
2023-01-11T11:31:31.558Z,9.17
2023-01-11T11:34:06.910Z,9.23
2023-01-11T11:36:48.731Z,9.24
2023-01-11T11:39:30.498Z,9.21
2023-01-11T11:42:05.751Z,9.19
2023-01-11T11:44:32.617Z,9.21
2023-01-11T11:47:19.321Z,9.27
2023-01-11T11:49:46.626Z,9.35
2023-01-11T11:52:17.464Z,9.39
2023-01-11T11:54:53.578Z,9.42
2023-01-11T11:57:29.751Z,9.41
2023-01-11T12:00:19.096Z,9.40
2023-01-11T12:02:52.033Z,9.35
2023-01-11T12:05:18.879Z,9.29
2023-01-11T12:07:55.086Z,9.27
2023-01-11T12:10:25.179Z,9.28
2023-01-11T12:13:03.015Z,9.36
2023-01-11T12:15:31.643Z,9.40
2023-01-11T12:18:50.536Z,9.38
2023-01-11T12:21:21.924Z,9.31
2023-01-11T12:24:12.523Z,9.38
2023-01-11T12:27:03.445Z,9.37
2023-01-11T12:29:54.952Z,9.44
2023-01-11T12:32:28.539Z,9.54
2023-01-11T12:35:00.690Z,9.52
2023-01-11T12:37:56.760Z,9.52
2023-01-11T12:41:05.678Z,9.50
2023-01-11T12:43:42.132Z,9.46
2023-01-11T12:46:47.618Z,9.42
2023-01-11T12:49:36.909Z,9.36
2023-01-11T12:52:25.171Z,9.33
2023-01-11T12:55:24.453Z,9.31
2023-01-11T12:58:21.906Z,9.30
2023-01-11T13:00:48.295Z,9.25
2023-01-11T13:03:40.427Z,9.24
2023-01-11T13:06:21.969Z,9.24
2023-01-11T13:09:04.629Z,9.25
2023-01-11T13:11:43.556Z,9.24
2023-01-11T13:14:33.815Z,9.28
2023-01-11T13:17:38.231Z,9.26
2023-01-11T13:20:18.771Z,9.20
2023-01-11T13:22:52.416Z,9.16
2023-01-11T13:25:24.011Z,9.12
2023-01-11T13:27:53.052Z,9.09
2023-01-11T13:30:20.119Z,9.11
2023-01-11T13:33:00.510Z,9.16
2023-01-11T13:35:51.701Z,9.19
2023-01-11T13:38:39.924Z,9.22
2023-01-11T13:41:20.770Z,9.30
2023-01-11T13:44:05.223Z,9.33
2023-01-11T13:46:31.635Z,9.35
2023-01-11T13:49:35.638Z,9.38
2023-01-11T13:52:11.001Z,9.39
2023-01-11T13:54:46.585Z,9.39
2023-01-11T13:57:30.269Z,9.38
2023-01-11T14:00:23.397Z,9.30
2023-01-11T14:03:17.918Z,9.24
2023-01-11T14:06:13.386Z,9.20
2023-01-11T14:08:42.783Z,9.19
2023-01-11T14:11:45.010Z,9.18
2023-01-11T14:14:29.607Z,9.18
2023-01-11T14:16:56.012Z,9.16
2023-01-11T14:19:39.322Z,9.13
2023-01-11T14:22:44.673Z,9.08
2023-01-11T14:25:22.140Z,9.05
2023-01-11T14:28:11.234Z,9.00
2023-01-11T14:30:59.048Z,9.01
2023-01-11T14:33:25.525Z,8.98
2023-01-11T14:36:10.590Z,8.96
2023-01-11T14:38:57.871Z,8.92
2023-01-11T14:41:38.418Z,8.91
2023-01-11T14:44:13.627Z,8.87
2023-01-11T14:46:58.927Z,8.84
2023-01-11T14:49:57.762Z,8.81
2023-01-11T14:52:39.561Z,8.76
2023-01-11T14:55:25.660Z,8.73
2023-01-11T14:57:54.827Z,8.67
2023-01-11T15:00:21.185Z,8.66
2023-01-11T15:03:10.540Z,8.61
2023-01-11T15:05:58.156Z,8.56
2023-01-11T15:08:40.869Z,8.52
2023-01-11T15:11:31.577Z,8.47
2023-01-11T15:14:06.031Z,8.43
2023-01-11T15:16:53.193Z,8.40
2023-01-11T15:19:28.060Z,8.39
2023-01-11T15:21:56.802Z,8.37
2023-01-11T15:24:30.107Z,8.33
2023-01-11T15:26:58.818Z,8.32
2023-01-11T15:29:40.185Z,8.31
2023-01-11T15:32:14.172Z,8.34
2023-01-11T15:34:43.210Z,8.34
2023-01-11T15:37:24.160Z,8.33
2023-01-11T15:39:58.972Z,8.27
2023-01-11T15:42:46.945Z,8.24
2023-01-11T15:46:03.118Z,8.20
2023-01-11T15:48:52.885Z,8.13
2023-01-11T15:51:43.570Z,8.12
2023-01-11T15:54:49.823Z,8.08
2023-01-11T15:58:02.928Z,8.04
2023-01-11T16:00:30.043Z,8.03
2023-01-11T16:03:11.597Z,8.02
2023-01-11T16:05:44.038Z,8.06
2023-01-11T16:08:38.929Z,8.08
2023-01-11T16:11:16.728Z,8.12
2023-01-11T16:13:50.253Z,8.13
2023-01-11T16:16:31.665Z,8.14
2023-01-11T16:19:22.546Z,8.15
2023-01-11T16:21:52.467Z,8.13
2023-01-11T16:24:21.939Z,8.11
2023-01-11T16:26:55.972Z,8.07
2023-01-11T16:29:28.894Z,8.02
2023-01-11T16:32:04.721Z,8.00
2023-01-11T16:34:41.049Z,7.98
2023-01-11T16:37:25.762Z,7.93
2023-01-11T16:39:57.167Z,7.93
2023-01-11T16:42:27.613Z,7.92
2023-01-11T16:45:04.083Z,7.90
2023-01-11T16:47:30.631Z,7.87
2023-01-11T16:50:19.946Z,7.86
2023-01-11T16:52:54.824Z,7.83
2023-01-11T16:55:23.115Z,7.83
2023-01-11T16:57:53.770Z,7.86
2023-01-11T17:00:27.579Z,7.87
2023-01-11T17:03:20.513Z,7.89
2023-01-11T17:06:22.688Z,7.89
2023-01-11T17:08:52.185Z,7.91
2023-01-11T17:11:46.644Z,7.94
2023-01-11T17:14:31.437Z,7.90
2023-01-11T17:17:01.669Z,7.89
2023-01-11T17:19:35.002Z,7.88
2023-01-11T17:22:06.706Z,7.89
2023-01-11T17:24:41.557Z,7.89
2023-01-11T17:27:18.945Z,7.94
2023-01-11T17:29:47.729Z,7.95
2023-01-11T17:32:20.259Z,7.96
2023-01-11T17:34:50.003Z,7.97
2023-01-11T17:37:18.893Z,7.96
2023-01-11T17:39:58.031Z,7.98
2023-01-11T17:42:43.308Z,7.98
2023-01-11T17:45:21.045Z,8.03
2023-01-11T17:47:50.989Z,8.06
2023-01-11T17:50:25.209Z,8.09
2023-01-11T17:53:13.619Z,8.10
2023-01-11T17:55:52.491Z,8.06
2023-01-11T17:58:28.476Z,8.04
2023-01-11T18:01:04.203Z,8.04
2023-01-11T18:03:38.611Z,8.06
2023-01-11T18:06:25.649Z,8.07
2023-01-11T18:08:57.332Z,8.10
2023-01-11T18:11:39.575Z,8.12
2023-01-11T18:14:16.655Z,8.15
2023-01-11T18:16:56.338Z,8.18
2023-01-11T18:19:31.676Z,8.18
2023-01-11T18:21:58.243Z,8.24
2023-01-11T18:24:29.610Z,8.22
2023-01-11T18:27:07.205Z,8.18
2023-01-11T18:29:36.559Z,8.12
2023-01-11T18:32:04.335Z,8.07
2023-01-11T18:34:32.021Z,8.04
2023-01-11T18:36:59.760Z,8.00
2023-01-11T18:39:26.181Z,7.98
2023-01-11T18:42:09.259Z,7.96
2023-01-11T18:44:41.540Z,7.97
2023-01-11T18:47:21.100Z,7.92
2023-01-11T18:49:49.423Z,7.92
2023-01-11T18:52:17.274Z,7.90
2023-01-11T18:54:43.953Z,7.89
2023-01-11T18:57:10.845Z,7.88
2023-01-11T18:59:37.456Z,7.86
2023-01-11T19:02:16.678Z,7.88
2023-01-11T19:04:44.599Z,7.88
2023-01-11T19:07:11.605Z,7.88
2023-01-11T19:09:38.266Z,7.88
2023-01-11T19:12:05.160Z,7.88
2023-01-11T19:14:31.614Z,7.88
2023-01-11T19:16:58.670Z,7.88
2023-01-11T19:19:25.295Z,7.85
2023-01-11T19:21:51.762Z,7.83
2023-01-11T19:24:18.243Z,7.82
2023-01-11T19:26:44.768Z,7.80
2023-01-11T19:29:16.353Z,7.78
2023-01-11T19:31:46.825Z,7.78
2023-01-11T19:34:13.970Z,7.76
2023-01-11T19:36:41.094Z,7.72
2023-01-11T19:39:08.512Z,7.70
2023-01-11T19:41:54.069Z,7.68
2023-01-11T19:44:30.750Z,7.66
2023-01-11T19:47:10.329Z,7.63
2023-01-11T19:49:38.461Z,7.59
2023-01-11T19:52:05.750Z,7.56
2023-01-11T19:54:32.224Z,7.55
2023-01-11T19:56:58.777Z,7.52
2023-01-11T19:59:25.283Z,7.48
2023-01-11T20:01:51.880Z,7.45
2023-01-11T20:04:18.500Z,7.43
2023-01-11T20:06:52.678Z,7.39
2023-01-11T20:09:20.748Z,7.35
2023-01-11T20:11:53.008Z,7.33
2023-01-11T20:14:20.343Z,7.32
2023-01-11T20:16:46.881Z,7.30
2023-01-11T20:19:13.682Z,7.28
2023-01-11T20:21:40.276Z,7.28
2023-01-11T20:24:06.950Z,7.28
2023-01-11T20:26:34.125Z,7.27
2023-01-11T20:29:01.577Z,7.27
2023-01-11T20:31:31.654Z,7.28
2023-01-11T20:33:59.993Z,7.29
2023-01-11T20:36:26.974Z,7.27
2023-01-11T20:38:54.815Z,7.26
2023-01-11T20:41:43.262Z,7.27
2023-01-11T20:44:11.045Z,7.27
2023-01-11T20:46:38.183Z,7.26
2023-01-11T20:49:06.169Z,7.23
2023-01-11T20:51:33.213Z,7.24
2023-01-11T20:53:59.845Z,7.22
2023-01-11T20:56:26.341Z,7.22
2023-01-11T20:58:52.899Z,7.25
2023-01-11T21:01:26.659Z,7.24
2023-01-11T21:04:22.905Z,7.26
2023-01-11T21:06:49.595Z,7.28
2023-01-11T21:09:17.794Z,7.28
2023-01-11T21:11:48.629Z,7.29
2023-01-11T21:14:15.031Z,7.30
2023-01-11T21:16:43.950Z,7.31
2023-01-11T21:19:11.979Z,7.30
2023-01-11T21:21:38.830Z,7.30
2023-01-11T21:24:06.104Z,7.29
2023-01-11T21:26:37.604Z,7.29
2023-01-11T21:29:04.897Z,7.29
2023-01-11T21:31:33.973Z,7.29
2023-01-11T21:34:01.593Z,7.30
2023-01-11T21:36:30.620Z,7.29
2023-01-11T21:38:58.965Z,7.29
2023-01-11T21:41:46.668Z,7.29
2023-01-11T21:44:14.340Z,7.31
2023-01-11T21:46:41.687Z,7.33
2023-01-11T21:49:10.098Z,7.33
2023-01-11T21:51:37.057Z,7.33
2023-01-11T21:54:11.842Z,7.35
2023-01-11T21:56:38.549Z,7.36
2023-01-11T21:59:04.976Z,7.40
2023-01-11T22:01:31.547Z,7.41
2023-01-11T22:03:58.987Z,7.42
2023-01-11T22:06:25.475Z,7.46
2023-01-11T22:08:52.242Z,7.46
2023-01-11T22:11:18.741Z,7.48
2023-01-11T22:13:45.277Z,7.50
2023-01-11T22:16:14.800Z,7.52
2023-01-11T22:18:41.817Z,7.55
2023-01-11T22:21:11.483Z,7.59
2023-01-11T22:23:42.917Z,7.60
2023-01-11T22:26:15.109Z,7.60
2023-01-11T22:29:00.812Z,7.62
2023-01-11T22:31:28.819Z,7.62
2023-01-11T22:33:55.853Z,7.63
2023-01-11T22:36:25.361Z,7.63
2023-01-11T22:38:52.268Z,7.63
2023-01-11T22:41:19.164Z,7.63
2023-01-11T22:43:46.126Z,7.66
2023-01-11T22:46:19.382Z,7.64
2023-01-11T22:48:49.400Z,7.64
2023-01-11T22:51:17.722Z,7.65
2023-01-11T22:53:46.795Z,7.65
2023-01-11T22:56:16.190Z,7.65
2023-01-11T22:58:42.928Z,7.65
2023-01-11T23:01:17.467Z,7.66
2023-01-11T23:03:45.235Z,7.66
2023-01-11T23:06:12.727Z,7.68
2023-01-11T23:08:41.431Z,7.69
2023-01-11T23:11:10.018Z,7.68
2023-01-11T23:13:58.768Z,7.70
2023-01-11T23:16:25.313Z,7.71
2023-01-11T23:18:51.787Z,7.73
2023-01-11T23:21:18.456Z,7.73
2023-01-11T23:23:44.905Z,7.75
2023-01-11T23:26:12.150Z,7.76
2023-01-11T23:28:39.304Z,7.76
2023-01-11T23:31:18.767Z,7.77
2023-01-11T23:33:50.067Z,7.76
2023-01-11T23:36:18.604Z,7.78
2023-01-11T23:38:46.799Z,7.79
2023-01-11T23:41:37.286Z,7.82
2023-01-11T23:44:11.438Z,7.83
2023-01-11T23:46:58.033Z,7.84
2023-01-11T23:49:25.237Z,7.85
2023-01-11T23:51:52.334Z,7.85
2023-01-11T23:54:18.892Z,7.86
2023-01-11T23:56:45.495Z,7.87
2023-01-11T23:59:11.940Z,7.87
